Ashfield, PA

6:50 AM EDT on October 31, 2014 (GMT -0400)
Mahoning Mountain | Change Station
CLOSE
Current Station
Personal Weather Station
Location: Lehighton, PA
Elevation: 689 ft
Nearby Weather Stations

Elev 689 ft 40.81 °N, 75.70 °W | Updated 43 seconds ago

Clear
Clear
27.3 °F
Feels Like 27 °F
N
0.0
Wind Variable Wind from North
Gusts 0.0 mph

Today
High -- | Low -- °F
--% Chance of Precip.
Yesterday
High -- | Low -- °F
Precip. -- in
7:32 AM 6:00 PM
First Quarter, 54% visible
Pressure 30.03 in
Visibility 10.0 miles
Clouds Clear
Windchill 27 °F
Dew Point 26 °F
Humidity 97%
Rainfall 0.00 in
Snow Depth Not available.
UV 0 out of 12
Pollen .60 out of 12
Air Quality Not available.
Flu Activity Not available.
METAR KABE 310951Z 24003KT 10SM CLR M02/M03 A3002 RMK AO2 SLP169 T10171028

More Conditions Fewer Conditions

Pressure 30.03 in
Visibility 10.0 miles
Clouds Clear
Windchill 27 °F
Dew Point 26 °F
Humidity 97%
Rainfall 0.00 in
Snow Depth Not available.
UV 0 out of 12
Pollen .60 out of 12
Air Quality Not available.
Flu Activity Not available.
METAR KABE 310951Z 24003KT 10SM CLR M02/M03 A3002 RMK AO2 SLP169 T10171028

More Conditions Fewer Conditions

10-Day Weather Forecast

Almanac

Astronomy

Oct. 31, 2014 Rise Set
Actual Time
Civil Twilight
Nautical Twilight
Astronomical Twilight
Moon
Length of Visible Light
Length of Day
Tomorrow will be .
, % of the Moon is Illuminated

Today's Extremes

State Highs State Lows

Community

WunderPhotos

Upload Photos

1,766,580 photos uploaded!

WunderBlogs® & News

Nearby

Air Quality

  Air Quality AQ Index Pollutant
Not available.

Snow Depth

Station Depth Elevation

Earthquake Activity

City Distance Mag. Time & Date
Minimum magnitude displayed is 2.5.

Coastal Water Temperatures

Place Temperature

Nearby Weather Stations